Euskara    
Meteorología y climatología de Navarra
Datos de la estación - Meteo Navarra

Estación de Pamplona GN

Altitud 455 m.


Datos desde el 18/10/2020 hasta el 19/10/2020 en horario solar
Los datos son PROVISIONALES

Anterior Página 1 de 1 Siguiente Descargar: Formato para Excel 2000 o superior   Formato csv   Formato para OpenOffice Calc
Fecha Temperatura Humedad relativa Radiación global Insolación Precipitación Vel. viento 10 m Vel. viento 10 m Dir. viento 10 m
°C % W/m² s l/m² m/s km/h °
18/10/2020 0:00 6.7 90 0.0 0 0.0 1.0 3.5 84
18/10/2020 0:10 6.4 91 0.0 0 0.0 1.2 4.4 84
18/10/2020 0:20 6.3 92 0.0 0 0.0 1.2 4.2 77
18/10/2020 0:30 6.1 93 0.0 0 0.0 1.3 4.6 87
18/10/2020 0:40 6.0 93 0.0 0 0.0 1.2 4.1 88
18/10/2020 0:50 6.0 92 0.0 0 0.0 1.2 4.4 99
18/10/2020 1:00 5.9 92 0.0 0 0.0 1.2 4.2 92
18/10/2020 1:10 5.7 93 0.0 0 0.0 1.1 4.0 98
18/10/2020 1:20 5.6 92 0.0 0 0.0 1.1 3.8 89
18/10/2020 1:30 5.5 93 0.0 0 0.0 1.0 3.7 88
18/10/2020 1:40 5.3 93 0.0 0 0.0 1.0 3.7 91
18/10/2020 1:50 5.2 93 0.0 0 0.0 0.5 1.7 101
18/10/2020 2:00 5.1 93 0.0 0 0.0 0.6 2.3 101
18/10/2020 2:10 5.2 93 0.0 0 0.0 0.2 0.5 74
18/10/2020 2:20 5.1 92 0.0 0 0.0 0.5 1.6 82
18/10/2020 2:30 5.0 92 0.0 0 0.0 0.4 1.3 104
18/10/2020 2:40 4.9 93 0.0 0 0.0 0.4 1.5 114
18/10/2020 2:50 4.9 93 0.0 0 0.0 1.3 4.8 105
18/10/2020 3:00 4.6 94 0.0 0 0.0 1.3 4.8 85
18/10/2020 3:10 4.4 95 0.0 0 0.0 1.2 4.2 80
18/10/2020 3:20 4.4 95 0.0 0 0.0 0.3 1.2 83
18/10/2020 3:30 4.4 94 0.0 0 0.0 1.0 3.5 79
18/10/2020 3:40 4.4 93 0.0 0 0.0 1.2 4.4 76
18/10/2020 3:50 4.4 93 0.0 0 0.0 1.5 5.3 74
18/10/2020 4:00 4.3 93 0.0 0 0.0 1.2 4.2 105
18/10/2020 4:10 4.3 92 0.0 0 0.0 0.5 1.9 80
18/10/2020 4:20 4.1 93 0.0 0 0.0 0.1 0.4 82
18/10/2020 4:30 4.1 93 0.0 0 0.0 0.5 1.8 68
18/10/2020 4:40 4.0 94 0.0 0 0.0 0.6 2.0 86
18/10/2020 4:50 4.0 94 0.0 0 0.0 0.0 0.0 0
18/10/2020 5:00 3.9 94 0.0 0 0.0 0.2 0.6 75
18/10/2020 5:10 3.9 94 0.0 0 0.0 0.1 0.5 73
18/10/2020 5:20 3.7 95 0.0 0 0.0 0.0 0.0 0
18/10/2020 5:30 3.6 95 0.0 0 0.0 0.0 0.0 0
18/10/2020 5:40 3.5 95 0.0 0 0.0 0.0 0.0 0
18/10/2020 5:50 3.6 95 0.0 0 0.0 0.0 0.0 0
18/10/2020 6:00 3.5 95 0.0 0 0.0 0.1 0.3 89
18/10/2020 6:10 3.5 95 0.0 0 0.0 0.0 0.0 100
18/10/2020 6:20 3.4 95 0.0 0 0.0 0.5 1.8 103
18/10/2020 6:30 3.4 95 0.0 0 0.0 0.0 0.0 0
18/10/2020 6:40 3.4 95 15.2 34 0.0 0.5 1.7 102
18/10/2020 6:50 3.5 95 55.3 600 0.0 0.7 2.5 85
18/10/2020 7:00 3.7 95 85.0 600 0.0 0.8 2.9 83
18/10/2020 7:10 4.0 93 99.8 600 0.0 0.7 2.4 94
18/10/2020 7:20 4.4 89 98.6 574 0.0 0.8 2.8 80
18/10/2020 7:30 4.5 88 77.8 0 0.0 0.4 1.3 80
18/10/2020 7:40 4.5 89 79.9 0 0.0 0.0 0.0 48
18/10/2020 7:50 4.6 89 111.5 216 0.0 0.1 0.5 48
18/10/2020 8:00 5.0 88 206.7 576 0.0 0.8 2.7 52
18/10/2020 8:10 5.6 85 236.3 582 0.0 1.9 6.9 51
18/10/2020 8:20 5.9 84 222.5 600 0.0 1.1 3.9 53
18/10/2020 8:30 6.0 83 237.2 600 0.0 0.6 2.2 75
18/10/2020 8:40 6.6 81 320.2 600 0.0 0.6 2.3 68
18/10/2020 8:50 7.2 78 381.9 600 0.0 1.1 3.9 71
18/10/2020 9:00 7.9 76 427.1 600 0.0 0.8 3.0 71
18/10/2020 9:10 8.3 75 377.8 600 0.0 0.5 1.6 54
18/10/2020 9:20 8.4 74 251.1 348 0.0 0.7 2.6 54
18/10/2020 9:30 8.4 74 233.2 122 0.0 1.1 4.1 59
18/10/2020 9:40 8.4 75 339.1 540 0.0 0.8 2.7 51
18/10/2020 9:50 8.8 74 427.5 600 0.0 0.5 1.7 73
18/10/2020 10:00 9.4 73 542.3 600 0.0 0.7 2.6 104
18/10/2020 10:10 9.9 72 516.5 600 0.0 0.1 0.3 95
18/10/2020 10:20 10.4 70 586.2 600 0.0 0.3 0.9 314
18/10/2020 10:30 11.0 69 584.2 600 0.0 0.2 0.7 255
18/10/2020 10:40 11.6 67 585.4 600 0.0 0.2 0.6 163
18/10/2020 10:50 12.0 64 528.0 600 0.0 0.4 1.4 126
18/10/2020 11:00 12.2 65 619.3 600 0.0 0.2 0.6 81
18/10/2020 11:10 12.6 62 618.0 600 0.0 0.4 1.5 98
18/10/2020 11:20 13.0 61 628.3 600 0.0 0.5 1.7 83
18/10/2020 11:30 13.3 60 632.5 600 0.0 0.7 2.6 103
18/10/2020 11:40 13.6 57 637.5 600 0.0 0.3 1.1 105
18/10/2020 11:50 14.4 54 640.1 600 0.0 0.1 0.4 171
18/10/2020 12:00 15.0 52 640.1 600 0.0 0.3 1.0 109
18/10/2020 12:10 15.0 52 635.9 600 0.0 0.2 0.8 119
18/10/2020 12:20 15.3 52 628.7 600 0.0 0.3 1.2 100
18/10/2020 12:30 15.8 49 615.7 600 0.0 0.5 1.8 58
18/10/2020 12:40 16.1 48 584.2 600 0.0 0.2 0.9 138
18/10/2020 12:50 16.6 47 587.1 600 0.0 0.5 1.7 136
18/10/2020 13:00 16.4 47 517.3 600 0.0 0.6 2.0 75
18/10/2020 13:10 16.4 45 558.8 600 0.0 1.1 3.9 87
18/10/2020 13:20 16.5 45 489.4 600 0.0 0.5 1.9 94
18/10/2020 13:30 17.0 42 544.9 600 0.0 0.1 0.4 142
18/10/2020 13:40 17.4 40 518.0 600 0.0 0.1 0.5 109
18/10/2020 13:50 17.5 40 469.0 600 0.0 0.1 0.4 122
18/10/2020 14:00 17.8 40 490.4 600 0.0 0.3 1.0 44
18/10/2020 14:10 18.2 41 423.2 600 0.0 0.0 0.1 359
18/10/2020 14:20 18.3 38 427.7 600 0.0 0.0 0.1 38
18/10/2020 14:30 18.5 39 412.6 600 0.0 0.0 0.1 48
18/10/2020 14:40 18.5 39 376.5 600 0.0 0.1 0.3 30
18/10/2020 14:50 18.9 39 386.4 600 0.0 0.0 0.0 64
18/10/2020 15:00 19.2 40 269.4 498 0.0 0.0 0.0 70
18/10/2020 15:10 18.7 39 146.2 70 0.0 0.0 0.0 29
18/10/2020 15:20 18.5 40 143.0 60 0.0 0.0 0.0 0
18/10/2020 15:30 18.8 41 231.1 514 0.0 0.0 0.0 0
18/10/2020 15:40 18.7 39 115.1 26 0.0 0.0 0.0 0
18/10/2020 15:50 18.6 41 161.2 600 0.0 0.0 0.0 0
18/10/2020 16:00 18.5 41 124.7 286 0.0 0.0 0.0 0
18/10/2020 16:10 18.6 42 145.4 600 0.0 0.2 0.7 42
18/10/2020 16:20 18.6 43 150.6 600 0.0 0.8 2.8 49
18/10/2020 16:30 19.2 41 108.7 600 0.0 0.0 0.0 0
18/10/2020 16:40 19.2 39 82.0 600 0.0 0.0 0.0 0
18/10/2020 16:50 18.8 41 52.5 600 0.0 0.0 0.0 0
18/10/2020 17:00 18.9 41 25.1 224 0.0 0.2 0.8 69
18/10/2020 17:10 17.7 47 0.0 0 0.0 0.7 2.6 89
18/10/2020 17:20 17.0 50 0.0 0 0.0 0.2 0.7 111
18/10/2020 17:30 16.5 51 0.0 0 0.0 0.4 1.4 82
18/10/2020 17:40 15.7 55 0.0 0 0.0 1.2 4.2 74
18/10/2020 17:50 14.9 59 0.0 0 0.0 0.8 2.9 81
18/10/2020 18:00 14.6 60 0.0 0 0.0 1.8 6.5 105
18/10/2020 18:10 14.2 61 0.0 0 0.0 1.4 5.0 89
18/10/2020 18:20 13.6 64 0.0 0 0.0 1.5 5.3 94
18/10/2020 18:30 13.3 65 0.0 0 0.0 1.9 6.7 92
18/10/2020 18:40 12.7 68 0.0 0 0.0 1.1 4.0 80
18/10/2020 18:50 12.4 68 0.0 0 0.0 1.4 5.0 88
18/10/2020 19:00 12.2 69 0.0 0 0.0 1.5 5.3 97
18/10/2020 19:10 11.9 71 0.0 0 0.0 1.5 5.4 93
18/10/2020 19:20 11.6 72 0.0 0 0.0 1.5 5.3 76
18/10/2020 19:30 11.5 72 0.0 0 0.0 2.0 7.1 90
18/10/2020 19:40 11.4 72 0.0 0 0.0 1.8 6.5 88
18/10/2020 19:50 11.1 74 0.0 0 0.0 2.1 7.5 90
18/10/2020 20:00 10.9 76 0.0 0 0.0 2.2 7.9 86
18/10/2020 20:10 10.7 76 0.0 0 0.0 1.8 6.3 72
18/10/2020 20:20 10.6 76 0.0 0 0.0 1.1 3.9 75
18/10/2020 20:30 10.6 75 0.0 0 0.0 0.5 1.8 60
18/10/2020 20:40 10.5 75 0.0 0 0.0 1.7 6.0 78
18/10/2020 20:50 10.7 75 0.0 0 0.0 2.3 8.1 87
18/10/2020 21:00 10.2 78 0.0 0 0.0 1.9 6.7 69
18/10/2020 21:10 10.1 78 0.0 0 0.0 1.4 4.9 73
18/10/2020 21:20 10.0 78 0.0 0 0.0 1.1 3.9 87
18/10/2020 21:30 10.3 76 0.0 0 0.0 1.2 4.4 94
18/10/2020 21:40 10.1 76 0.0 0 0.0 1.6 5.8 70
18/10/2020 21:50 9.7 79 0.0 0 0.0 1.6 5.7 62
18/10/2020 22:00 9.4 81 0.0 0 0.0 1.7 6.0 59
18/10/2020 22:10 9.2 81 0.0 0 0.0 1.4 5.0 81
18/10/2020 22:20 9.3 80 0.0 0 0.0 1.5 5.5 91
18/10/2020 22:30 9.4 80 0.0 0 0.0 1.3 4.6 67
18/10/2020 22:40 9.2 80 0.0 0 0.0 1.0 3.6 74
18/10/2020 22:50 9.0 80 0.0 0 0.0 0.4 1.6 52
18/10/2020 23:00 8.9 81 0.0 0 0.0 0.4 1.6 44
18/10/2020 23:10 9.0 81 0.0 0 0.0 2.2 8.0 55
18/10/2020 23:20 8.8 82 0.0 0 0.0 2.0 7.1 76
18/10/2020 23:30 8.5 83 0.0 0 0.0 1.6 5.9 80
18/10/2020 23:40 8.3 84 0.0 0 0.0 1.7 6.2 73
18/10/2020 23:50 8.0 85 0.0 0 0.0 1.3 4.6 65
Anterior Página 1 de 1 Siguiente

NOTA: Tipo de datos según el color:
   - Valores diarios o 10 minutos correctos
   - Valores diarios calculados a partir de un número de datos 10 minutos menor que 144 y mayor que 120, o de un número de datos semihorarios menor que 48 y mayor que 40 (caso de las estaciones de INTIA Y Ministerio)
   - Valores diez minutos estimados


Contacto        Enlaces        Aviso legal